createdAt,value
2018-03-02T00:00:25.556Z,0.00
2018-03-02T00:02:52.587Z,0.00
2018-03-02T00:05:19.563Z,0.00
2018-03-02T00:07:46.541Z,0.00
2018-03-02T00:10:13.595Z,0.00
2018-03-02T00:12:40.564Z,0.00
2018-03-02T00:15:07.536Z,0.00
2018-03-02T00:17:35.279Z,-0.20
2018-03-02T00:20:02.268Z,-0.20
2018-03-02T00:22:30.008Z,-0.20
2018-03-02T00:24:57.051Z,-0.20
2018-03-02T00:27:24.116Z,-0.20
2018-03-02T00:29:51.176Z,-0.20
2018-03-02T00:32:18.159Z,-0.20
2018-03-02T00:34:45.136Z,-0.30
2018-03-02T00:37:12.159Z,-0.20
2018-03-02T00:39:39.135Z,-0.30
2018-03-02T00:42:06.117Z,-0.30
2018-03-02T00:44:33.856Z,-0.30
2018-03-02T00:47:00.898Z,-0.30
2018-03-02T00:49:27.876Z,-0.30
2018-03-02T00:51:54.863Z,-0.40
2018-03-02T00:54:21.884Z,-0.40
2018-03-02T00:56:48.931Z,-0.40
2018-03-02T00:59:15.894Z,-0.40
2018-03-02T01:01:42.875Z,-0.50
2018-03-02T01:04:09.849Z,-0.50
2018-03-02T01:06:36.827Z,-0.50
2018-03-02T01:09:04.571Z,-0.50
2018-03-02T01:11:32.323Z,-0.60
2018-03-02T01:13:59.295Z,-0.60
2018-03-02T01:16:26.275Z,-0.60
2018-03-02T01:18:53.252Z,-0.60
2018-03-02T01:21:21.075Z,-0.60
2018-03-02T01:23:48.136Z,-0.70
2018-03-02T01:26:15.120Z,-0.70
2018-03-02T01:28:42.096Z,-0.70
2018-03-02T01:31:09.075Z,-0.70
2018-03-02T01:33:36.895Z,-0.80
2018-03-02T01:36:04.052Z,-0.80
2018-03-02T01:38:31.028Z,-0.80
2018-03-02T01:40:58.019Z,-0.80
2018-03-02T01:43:24.987Z,-0.80
2018-03-02T01:45:52.731Z,-0.90
2018-03-02T01:48:20.612Z,-0.90
2018-03-02T01:50:47.588Z,-0.90
2018-03-02T01:53:14.603Z,-0.90
2018-03-02T01:55:41.667Z,-0.90
2018-03-02T01:58:09.411Z,-0.90
2018-03-02T02:00:36.392Z,-1.00
2018-03-02T02:03:03.450Z,-1.00
2018-03-02T02:05:30.431Z,-1.00
2018-03-02T02:07:57.607Z,-1.00
2018-03-02T02:10:24.640Z,-1.00
2018-03-02T02:12:51.615Z,-1.00
2018-03-02T02:15:18.655Z,-1.00
2018-03-02T02:17:45.717Z,-1.00
2018-03-02T02:20:12.687Z,-1.00
2018-03-02T02:22:39.736Z,-1.00
2018-03-02T02:25:06.717Z,-1.00
2018-03-02T02:27:33.756Z,-1.10
2018-03-02T02:30:00.727Z,-1.10
2018-03-02T02:32:27.772Z,-1.20
2018-03-02T02:34:54.744Z,-1.20
2018-03-02T02:37:21.728Z,-1.20
2018-03-02T02:39:48.699Z,-1.20
2018-03-02T02:42:16.520Z,-1.30
2018-03-02T02:44:43.494Z,-1.30
2018-03-02T02:47:10.477Z,-1.30
2018-03-02T02:49:37.448Z,-1.30
2018-03-02T02:52:05.277Z,-1.30
2018-03-02T02:54:32.335Z,-1.40
2018-03-02T02:56:59.391Z,-1.40
2018-03-02T02:59:26.362Z,-1.40
2018-03-02T03:01:53.348Z,-1.40
2018-03-02T03:04:20.320Z,-1.50
2018-03-02T03:06:48.147Z,-1.50
2018-03-02T03:09:15.206Z,-1.60
2018-03-02T03:11:42.268Z,-1.50
2018-03-02T03:14:09.243Z,-1.60
2018-03-02T03:16:36.227Z,-1.60
2018-03-02T03:19:03.203Z,-1.60
2018-03-02T03:21:31.023Z,-1.70
2018-03-02T03:23:57.999Z,-1.70
2018-03-02T03:26:24.979Z,-1.70
2018-03-02T03:28:52.000Z,-1.70
2018-03-02T03:31:18.988Z,-1.70
2018-03-02T03:33:45.963Z,-1.70
2018-03-02T03:36:13.791Z,-1.80
2018-03-02T03:38:40.764Z,-1.80
2018-03-02T03:41:07.756Z,-1.80
2018-03-02T03:43:35.589Z,-1.80
2018-03-02T03:46:02.571Z,-1.80
2018-03-02T03:48:29.603Z,-1.80
2018-03-02T03:50:56.583Z,-1.80
2018-03-02T03:53:23.555Z,-1.80
2018-03-02T03:55:50.539Z,-1.80
2018-03-02T03:58:18.274Z,-1.80
2018-03-02T04:00:45.255Z,-1.80
2018-03-02T04:03:12.228Z,-1.80
2018-03-02T04:05:39.974Z,-1.90
2018-03-02T04:08:06.955Z,-1.90
2018-03-02T04:10:34.695Z,-1.80
2018-03-02T04:13:01.739Z,-1.90
2018-03-02T04:15:28.803Z,-1.90
2018-03-02T04:17:55.783Z,-1.90
2018-03-02T04:20:22.766Z,-1.90
2018-03-02T04:22:49.779Z,-1.90
2018-03-02T04:25:16.751Z,-1.90
2018-03-02T04:27:43.799Z,-1.90
2018-03-02T04:30:10.859Z,-2.00
2018-03-02T04:32:37.843Z,-2.00
2018-03-02T04:35:04.883Z,-2.00
2018-03-02T04:37:31.942Z,-2.00
2018-03-02T04:39:58.999Z,-2.00
2018-03-02T04:42:25.979Z,-2.00
2018-03-02T04:44:52.955Z,-2.00
2018-03-02T04:47:19.939Z,-2.00
2018-03-02T04:49:46.911Z,-2.10
2018-03-02T04:52:13.895Z,-2.10
2018-03-02T04:54:40.946Z,-2.10
2018-03-02T04:57:07.932Z,-2.10
2018-03-02T04:59:35.071Z,-2.10
2018-03-02T05:02:02.947Z,-2.10
2018-03-02T05:04:29.923Z,-2.10
2018-03-02T05:06:56.966Z,-2.10
2018-03-02T05:09:24.027Z,-2.20
2018-03-02T05:11:51.015Z,-2.20
2018-03-02T05:14:18.048Z,-2.20
2018-03-02T05:16:45.107Z,-2.20
2018-03-02T05:19:12.082Z,-2.20
2018-03-02T05:21:39.071Z,-2.20
2018-03-02T05:24:06.087Z,-2.20
2018-03-02T05:26:33.071Z,-2.20
2018-03-02T05:29:00.047Z,-2.20
2018-03-02T05:31:27.811Z,-2.20
2018-03-02T05:33:54.839Z,-2.20
2018-03-02T05:36:21.899Z,-2.20
2018-03-02T05:38:48.871Z,-2.20
2018-03-02T05:41:15.911Z,-2.20
2018-03-02T05:43:42.891Z,-2.30
2018-03-02T05:46:09.871Z,-2.30
2018-03-02T05:48:36.886Z,-2.30
2018-03-02T05:51:03.863Z,-2.30
2018-03-02T05:53:30.851Z,-2.30
2018-03-02T05:55:58.591Z,-2.30
2018-03-02T05:58:25.575Z,-2.30
2018-03-02T06:00:52.598Z,-2.30
2018-03-02T06:03:19.661Z,-2.30
2018-03-02T06:05:46.630Z,-2.30
2018-03-02T06:08:14.528Z,-2.30
2018-03-02T06:10:42.999Z,-2.30
2018-03-02T06:13:10.051Z,-2.30
2018-03-02T06:15:37.023Z,-2.30
2018-03-02T06:18:04.010Z,-2.30
2018-03-02T06:20:31.023Z,-2.30
2018-03-02T06:22:58.010Z,-2.20
2018-03-02T06:25:25.044Z,-2.20
2018-03-02T06:27:52.025Z,-2.20
2018-03-02T06:30:19.068Z,-2.20
2018-03-02T06:32:46.046Z,-2.20
2018-03-02T06:35:13.035Z,-2.20
2018-03-02T06:37:40.780Z,-2.20
2018-03-02T06:40:07.751Z,-2.20
2018-03-02T06:42:34.876Z,-2.20
2018-03-02T06:45:01.857Z,-2.20
2018-03-02T06:47:28.836Z,-2.10
2018-03-02T06:49:55.855Z,-2.10
2018-03-02T06:52:22.839Z,-2.10
2018-03-02T06:54:49.818Z,-2.20
2018-03-02T06:57:17.563Z,-2.20
2018-03-02T06:59:44.607Z,-2.20
2018-03-02T07:02:11.663Z,-2.20
2018-03-02T07:04:38.635Z,-2.20
2018-03-02T07:07:05.620Z,-2.20
2018-03-02T07:09:32.611Z,-2.20
2018-03-02T07:11:59.592Z,-2.20
2018-03-02T07:14:26.563Z,-2.10
2018-03-02T07:16:53.546Z,-2.10
2018-03-02T07:19:20.570Z,-2.10
2018-03-02T07:21:47.551Z,-2.10
2018-03-02T07:24:14.592Z,-2.00
2018-03-02T07:26:41.652Z,-2.00
2018-03-02T07:29:08.628Z,-2.00
2018-03-02T07:31:35.675Z,-2.00
2018-03-02T07:34:02.731Z,-2.00
2018-03-02T07:36:29.715Z,-2.00
2018-03-02T07:38:56.694Z,-2.00
2018-03-02T07:41:24.523Z,-1.90
2018-03-02T07:43:51.587Z,-1.90
2018-03-02T07:46:18.556Z,-1.90
2018-03-02T07:48:45.535Z,-1.90
2018-03-02T07:51:12.511Z,-1.80
2018-03-02T07:53:40.339Z,-1.90
2018-03-02T07:56:07.403Z,-1.90
2018-03-02T07:58:34.387Z,-1.80
2018-03-02T08:01:01.415Z,-1.80
2018-03-02T08:03:28.402Z,-1.80
2018-03-02T08:05:55.377Z,-1.70
2018-03-02T08:08:22.355Z,-1.70
2018-03-02T08:10:50.167Z,-1.70
2018-03-02T08:13:17.147Z,-1.70
2018-03-02T08:15:44.127Z,-1.70
2018-03-02T08:18:11.120Z,-1.70
2018-03-02T08:20:38.092Z,-1.70
2018-03-02T08:23:05.064Z,-1.60
2018-03-02T08:25:32.051Z,-1.60
2018-03-02T08:27:59.074Z,-1.60
2018-03-02T08:30:26.064Z,-1.60
2018-03-02T08:32:53.107Z,-1.60
2018-03-02T08:35:20.082Z,-1.60
2018-03-02T08:37:47.055Z,-1.60
2018-03-02T08:40:16.433Z,-1.50
2018-03-02T08:42:43.487Z,-1.50
2018-03-02T08:45:10.556Z,-1.40
2018-03-02T08:47:37.531Z,-1.40
2018-03-02T08:50:04.507Z,-1.30
2018-03-02T08:52:31.520Z,-1.30
2018-03-02T08:54:58.499Z,-1.20
2018-03-02T08:57:25.539Z,-1.20
2018-03-02T08:59:52.599Z,-1.20
2018-03-02T09:02:19.580Z,-1.10
2018-03-02T09:04:46.567Z,-1.10
2018-03-02T09:07:14.394Z,-1.00
2018-03-02T09:09:41.455Z,-1.00
2018-03-02T09:12:08.515Z,-1.00
2018-03-02T09:14:35.501Z,-1.00
2018-03-02T09:17:02.472Z,-1.10
2018-03-02T09:19:29.481Z,-1.00
2018-03-02T09:21:56.447Z,-1.00
2018-03-02T09:24:23.511Z,-1.00
2018-03-02T09:26:50.497Z,-1.00
2018-03-02T09:29:17.471Z,-1.00
2018-03-02T09:31:44.490Z,-0.90
2018-03-02T09:34:11.464Z,-0.90
2018-03-02T09:36:38.443Z,-0.90
2018-03-02T09:39:05.464Z,-0.90
2018-03-02T09:41:32.523Z,-0.80
2018-03-02T09:43:59.495Z,-0.80
2018-03-02T09:46:26.543Z,-0.80
2018-03-02T09:48:53.515Z,-0.80
2018-03-02T09:51:20.555Z,-0.80
2018-03-02T09:53:47.528Z,-0.70
2018-03-02T09:56:14.579Z,-0.70
2018-03-02T09:58:41.740Z,-0.70
2018-03-02T10:01:08.799Z,-0.60
2018-03-02T10:03:35.841Z,-0.50
2018-03-02T10:06:03.555Z,-0.40
2018-03-02T10:08:30.593Z,-0.40
2018-03-02T10:10:57.565Z,-0.30
2018-03-02T10:13:24.552Z,-0.30
2018-03-02T10:15:51.523Z,-0.30
2018-03-02T10:18:19.275Z,-0.30
2018-03-02T10:20:46.248Z,-0.30
2018-03-02T10:23:13.259Z,-0.20
2018-03-02T10:25:40.231Z,-0.20
2018-03-02T10:28:07.215Z,-0.10
2018-03-02T10:30:34.343Z,-0.10
2018-03-02T10:33:01.313Z,0.00
2018-03-02T10:35:28.283Z,0.10
2018-03-02T10:37:55.258Z,0.10
2018-03-02T10:40:22.999Z,0.10
2018-03-02T10:42:49.980Z,0.10
2018-03-02T10:45:17.041Z,0.10
2018-03-02T10:47:43.983Z,0.20
2018-03-02T10:50:11.032Z,0.20
2018-03-02T10:52:37.996Z,0.30
2018-03-02T10:55:05.183Z,0.30
2018-03-02T10:57:32.151Z,0.30
2018-03-02T10:59:59.895Z,0.40
2018-03-02T11:02:26.871Z,0.40
2018-03-02T11:04:59.647Z,0.50
2018-03-02T11:07:26.690Z,0.50
2018-03-02T11:09:53.672Z,0.50
2018-03-02T11:12:20.634Z,0.60
2018-03-02T11:14:47.617Z,0.70
2018-03-02T11:17:14.628Z,0.70
2018-03-02T11:19:41.689Z,0.80
2018-03-02T11:22:08.656Z,0.80
2018-03-02T11:24:35.711Z,0.80
2018-03-02T11:27:02.684Z,0.80
2018-03-02T11:29:29.662Z,0.80
2018-03-02T11:31:56.627Z,0.80
2018-03-02T11:34:23.603Z,0.90
2018-03-02T11:36:51.344Z,1.00
2018-03-02T11:39:18.323Z,1.00
2018-03-02T11:41:46.055Z,1.00
2018-03-02T11:44:13.036Z,1.00
2018-03-02T11:46:40.015Z,1.00
2018-03-02T11:49:06.988Z,1.10
2018-03-02T11:51:34.722Z,1.10
2018-03-02T11:54:01.703Z,1.10
2018-03-02T11:56:29.442Z,1.20
2018-03-02T11:58:56.471Z,1.10
2018-03-02T12:01:23.387Z,1.20
2018-03-02T12:03:50.431Z,1.20
2018-03-02T12:06:17.403Z,1.20
2018-03-02T12:08:44.379Z,1.20
2018-03-02T12:11:12.114Z,1.20
2018-03-02T12:13:39.162Z,1.20
2018-03-02T12:16:06.135Z,1.30
2018-03-02T12:18:33.107Z,1.30
2018-03-02T12:21:00.084Z,1.30
2018-03-02T12:23:27.836Z,1.30
2018-03-02T12:25:54.875Z,1.30
2018-03-02T12:28:21.919Z,1.30
2018-03-02T12:30:48.843Z,1.30
2018-03-02T12:33:16.578Z,1.30
2018-03-02T12:35:43.551Z,1.30
2018-03-02T12:38:11.431Z,1.40
2018-03-02T12:40:38.403Z,1.40
2018-03-02T12:43:05.376Z,1.40
2018-03-02T12:45:33.199Z,1.40
2018-03-02T12:48:00.166Z,1.40
2018-03-02T12:50:27.151Z,1.40
2018-03-02T12:52:54.122Z,1.40
2018-03-02T12:55:21.949Z,1.40
2018-03-02T12:57:48.920Z,1.40
2018-03-02T13:00:15.899Z,1.40
2018-03-02T13:02:42.868Z,1.40
2018-03-02T13:05:09.887Z,1.50
2018-03-02T13:07:36.950Z,1.50
2018-03-02T13:10:03.923Z,1.60
2018-03-02T13:12:30.895Z,1.60
2018-03-02T13:14:57.876Z,1.60
2018-03-02T13:17:25.607Z,1.70
2018-03-02T13:19:52.611Z,1.70
2018-03-02T13:22:26.151Z,1.80
2018-03-02T13:24:53.884Z,1.80
2018-03-02T13:27:26.951Z,1.80
2018-03-02T13:29:53.928Z,1.80
2018-03-02T13:32:20.891Z,1.80
2018-03-02T13:34:53.967Z,1.80
2018-03-02T13:37:20.930Z,1.80
2018-03-02T13:40:02.782Z,1.90
2018-03-02T13:42:30.532Z,1.90
2018-03-02T13:44:57.511Z,1.90
2018-03-02T13:47:31.283Z,2.00
2018-03-02T13:50:02.132Z,1.90
2018-03-02T13:52:29.100Z,2.00
2018-03-02T13:54:56.080Z,2.10
2018-03-02T13:57:29.064Z,2.10
2018-03-02T13:59:56.109Z,2.10
2018-03-02T14:02:28.900Z,2.10
2018-03-02T14:04:59.796Z,2.10
2018-03-02T14:07:26.818Z,2.10
2018-03-02T14:09:53.878Z,2.10
2018-03-02T14:12:20.872Z,2.20
2018-03-02T14:14:47.835Z,2.30
2018-03-02T14:17:14.859Z,2.30
2018-03-02T14:19:42.542Z,2.80
2018-03-02T14:22:09.587Z,2.80
2018-03-02T14:24:36.556Z,3.10
2018-03-02T14:27:03.567Z,3.30
2018-03-02T14:29:31.388Z,3.40
2018-03-02T14:31:58.364Z,3.30
2018-03-02T14:34:25.355Z,3.30
2018-03-02T14:36:53.098Z,3.20
2018-03-02T14:39:20.127Z,3.10
2018-03-02T14:41:47.873Z,3.00
2018-03-02T14:44:15.688Z,3.00
2018-03-02T14:46:42.788Z,2.90
2018-03-02T14:49:09.759Z,2.90
2018-03-02T14:51:37.514Z,2.80
2018-03-02T14:54:04.467Z,2.70
2018-03-02T14:56:31.444Z,2.60
2018-03-02T14:58:59.271Z,2.40
2018-03-02T15:01:26.339Z,2.40
2018-03-02T15:03:53.351Z,2.40
2018-03-02T15:06:21.092Z,2.30
2018-03-02T15:08:48.067Z,2.30
2018-03-02T15:11:15.087Z,2.30
2018-03-02T15:13:42.059Z,2.20
2018-03-02T15:16:09.113Z,2.20
2018-03-02T15:18:36.083Z,2.20
2018-03-02T15:21:03.122Z,2.20
2018-03-02T15:23:30.092Z,2.20
2018-03-02T15:25:57.072Z,2.20
2018-03-02T15:28:24.076Z,2.10
2018-03-02T15:30:51.796Z,2.10
2018-03-02T15:33:18.769Z,2.10
2018-03-02T15:35:45.726Z,2.10
2018-03-02T15:38:12.723Z,2.10
2018-03-02T15:40:39.695Z,2.10
2018-03-02T15:43:06.675Z,2.10
2018-03-02T15:45:33.655Z,2.10
2018-03-02T15:48:00.640Z,2.00
2018-03-02T15:50:28.375Z,2.00
2018-03-02T15:52:55.356Z,2.00
2018-03-02T15:55:22.323Z,2.00
2018-03-02T15:57:50.156Z,1.90
2018-03-02T16:00:17.127Z,1.90
2018-03-02T16:02:44.103Z,1.90
2018-03-02T16:05:11.139Z,1.90
2018-03-02T16:07:38.143Z,1.90
2018-03-02T16:10:05.998Z,1.80
2018-03-02T16:12:33.023Z,1.80
2018-03-02T16:15:00.758Z,1.80
2018-03-02T16:17:28.549Z,1.70
2018-03-02T16:19:56.290Z,1.70
2018-03-02T16:22:23.478Z,1.70
2018-03-02T16:24:50.431Z,1.70
2018-03-02T16:27:18.185Z,1.70
2018-03-02T16:29:45.219Z,1.70
2018-03-02T16:32:12.290Z,1.70
2018-03-02T16:34:39.347Z,1.70
2018-03-02T16:37:06.320Z,1.70
2018-03-02T16:39:33.312Z,1.70
2018-03-02T16:42:01.050Z,1.60
2018-03-02T16:44:28.164Z,1.60
2018-03-02T16:46:55.131Z,1.60
2018-03-02T16:49:22.239Z,1.60
2018-03-02T16:51:49.276Z,1.60
2018-03-02T16:54:16.267Z,1.60
2018-03-02T16:56:43.239Z,1.60
2018-03-02T16:59:11.067Z,1.60
2018-03-02T17:01:38.047Z,1.60
2018-03-02T17:04:05.022Z,1.60
2018-03-02T17:06:31.999Z,1.60
2018-03-02T17:08:59.740Z,1.60
2018-03-02T17:11:26.702Z,1.60
2018-03-02T17:13:53.679Z,1.60
2018-03-02T17:16:20.691Z,1.60
2018-03-02T17:18:47.751Z,1.60
2018-03-02T17:21:14.719Z,1.60
2018-03-02T17:23:41.763Z,1.60
2018-03-02T17:26:08.735Z,1.60
2018-03-02T17:28:35.792Z,1.50
2018-03-02T17:31:02.756Z,1.50
2018-03-02T17:33:29.804Z,1.50
2018-03-02T17:35:56.835Z,1.50
2018-03-02T17:38:23.823Z,1.50
2018-03-02T17:40:50.887Z,1.50
2018-03-02T17:43:17.851Z,1.50
2018-03-02T17:45:44.835Z,1.50
2018-03-02T17:48:12.885Z,1.50
2018-03-02T17:50:39.865Z,1.50
2018-03-02T17:53:06.916Z,1.50
2018-03-02T17:55:33.959Z,1.50
2018-03-02T17:58:00.926Z,1.50
2018-03-02T18:00:27.907Z,1.50
2018-03-02T18:02:54.879Z,1.50
2018-03-02T18:05:21.891Z,1.50
2018-03-02T18:07:48.959Z,1.50
2018-03-02T18:10:15.935Z,1.50
2018-03-02T18:12:42.974Z,1.50
2018-03-02T18:15:09.951Z,1.50
2018-03-02T18:17:36.919Z,1.50
2018-03-02T18:20:03.903Z,1.50
2018-03-02T18:22:31.719Z,1.50
2018-03-02T18:24:58.708Z,1.50
2018-03-02T18:27:25.742Z,1.50
2018-03-02T18:29:52.715Z,1.50
2018-03-02T18:32:19.764Z,1.50
2018-03-02T18:34:46.731Z,1.40
2018-03-02T18:37:13.781Z,1.50
2018-03-02T18:39:40.844Z,1.50
2018-03-02T18:42:07.823Z,1.40
2018-03-02T18:44:34.859Z,1.40
2018-03-02T18:47:01.976Z,1.40
2018-03-02T18:49:28.887Z,1.40
2018-03-02T18:51:55.868Z,1.40
2018-03-02T18:54:22.836Z,1.40
2018-03-02T18:56:49.855Z,1.40
2018-03-02T18:59:16.908Z,1.40
2018-03-02T19:01:43.976Z,1.40
2018-03-02T19:04:11.039Z,1.40
2018-03-02T19:06:38.073Z,1.40
2018-03-02T19:09:05.890Z,1.30
2018-03-02T19:11:32.859Z,1.30
2018-03-02T19:13:59.824Z,1.30
2018-03-02T19:16:26.846Z,1.20
2018-03-02T19:18:53.816Z,1.20
2018-03-02T19:21:20.868Z,1.20
2018-03-02T19:23:47.840Z,1.20
2018-03-02T19:26:14.884Z,1.10
2018-03-02T19:28:41.943Z,1.10
2018-03-02T19:31:08.914Z,1.00
2018-03-02T19:33:35.896Z,1.00
2018-03-02T19:36:03.731Z,0.90
2018-03-02T19:38:30.707Z,0.90
2018-03-02T19:40:57.672Z,0.90
2018-03-02T19:43:24.655Z,0.90
2018-03-02T19:45:51.634Z,0.90
2018-03-02T19:48:20.297Z,0.70
2018-03-02T19:50:47.328Z,0.80
2018-03-02T19:53:14.304Z,0.70
2018-03-02T19:55:41.271Z,0.70
2018-03-02T19:58:08.311Z,0.70
2018-03-02T20:00:35.271Z,0.60
2018-03-02T20:03:02.324Z,0.60
2018-03-02T20:05:29.387Z,0.60
2018-03-02T20:07:56.444Z,0.60
2018-03-02T20:10:23.503Z,0.50
2018-03-02T20:12:50.564Z,0.40
2018-03-02T20:15:17.619Z,0.40
2018-03-02T20:17:44.600Z,0.30
2018-03-02T20:20:11.639Z,0.30
2018-03-02T20:22:38.610Z,0.20
2018-03-02T20:25:05.591Z,0.20
2018-03-02T20:27:32.567Z,0.10
2018-03-02T20:30:00.392Z,0.00
2018-03-02T20:32:27.361Z,0.00
2018-03-02T20:34:54.339Z,0.00
2018-03-02T20:37:21.312Z,0.00
2018-03-02T20:39:48.287Z,0.00
2018-03-02T20:42:16.118Z,-0.10
2018-03-02T20:44:43.087Z,-0.10
2018-03-02T20:47:10.063Z,-0.10
2018-03-02T20:49:37.044Z,-0.20
2018-03-02T20:52:04.861Z,-0.20
2018-03-02T20:54:31.843Z,-0.20
2018-03-02T20:56:58.911Z,-0.20
2018-03-02T20:59:25.898Z,-0.20
2018-03-02T21:01:52.931Z,-0.20
2018-03-02T21:04:19.991Z,-0.20
2018-03-02T21:06:47.055Z,-0.20
2018-03-02T21:09:14.111Z,-0.30
2018-03-02T21:11:41.111Z,-0.30
2018-03-02T21:14:08.100Z,-0.30
2018-03-02T21:16:35.088Z,-0.30
2018-03-02T21:19:02.060Z,-0.30
2018-03-02T21:21:29.041Z,-0.30
2018-03-02T21:23:56.071Z,-0.40
2018-03-02T21:26:23.072Z,-0.40
2018-03-02T21:28:50.811Z,-0.40
2018-03-02T21:31:17.803Z,-0.40
2018-03-02T21:33:44.775Z,-0.40
2018-03-02T21:36:12.594Z,-0.30
2018-03-02T21:38:39.592Z,-0.30
2018-03-02T21:41:06.575Z,-0.30
2018-03-02T21:43:33.552Z,-0.30
2018-03-02T21:46:00.536Z,-0.30
2018-03-02T21:48:27.583Z,-0.30
2018-03-02T21:50:54.656Z,-0.30
2018-03-02T21:53:21.627Z,-0.30
2018-03-02T21:55:48.606Z,-0.20
2018-03-02T21:58:15.578Z,-0.20
2018-03-02T22:00:43.399Z,-0.20
2018-03-02T22:03:10.463Z,-0.20
2018-03-02T22:05:37.447Z,-0.20
2018-03-02T22:08:04.424Z,-0.20
2018-03-02T22:10:32.170Z,-0.20
2018-03-02T22:12:59.140Z,-0.20
2018-03-02T22:15:26.168Z,-0.20
2018-03-02T22:17:53.164Z,-0.20
2018-03-02T22:20:20.131Z,-0.10
2018-03-02T22:22:47.145Z,-0.20
2018-03-02T22:25:14.116Z,-0.10
2018-03-02T22:27:41.098Z,-0.20
2018-03-02T22:30:08.128Z,-0.10
2018-03-02T22:32:35.110Z,-0.20
2018-03-02T22:35:02.137Z,-0.20
2018-03-02T22:37:29.120Z,-0.20
2018-03-02T22:39:56.154Z,-0.20
2018-03-02T22:42:23.147Z,-0.20
2018-03-02T22:44:50.179Z,-0.20
2018-03-02T22:47:17.243Z,-0.20
2018-03-02T22:49:44.296Z,-0.20
2018-03-02T22:52:11.275Z,-0.20
2018-03-02T22:54:38.247Z,-0.20
2018-03-02T22:57:05.271Z,-0.20
2018-03-02T22:59:32.332Z,-0.20
2018-03-02T23:01:59.310Z,-0.10
2018-03-02T23:04:26.347Z,-0.20
2018-03-02T23:06:53.327Z,-0.20
2018-03-02T23:09:20.408Z,-0.20
2018-03-02T23:11:47.430Z,-0.20
2018-03-02T23:14:14.402Z,-0.20
2018-03-02T23:16:41.377Z,-0.10
2018-03-02T23:19:08.362Z,-0.20
2018-03-02T23:21:36.106Z,-0.20
2018-03-02T23:24:03.141Z,-0.20
2018-03-02T23:26:30.111Z,-0.20
2018-03-02T23:28:57.095Z,-0.20
2018-03-02T23:31:24.117Z,-0.20
2018-03-02T23:33:51.174Z,-0.20
2018-03-02T23:36:18.239Z,-0.20
2018-03-02T23:38:45.291Z,-0.10
2018-03-02T23:41:12.265Z,-0.10
2018-03-02T23:43:39.248Z,-0.10
2018-03-02T23:46:06.223Z,-0.10
2018-03-02T23:48:33.971Z,-0.10
2018-03-02T23:51:00.942Z,-0.20
2018-03-02T23:53:27.964Z,-0.10
2018-03-02T23:55:54.935Z,-0.10
2018-03-02T23:58:21.919Z,-0.20
